Hauptseite
METAR-TAF:

METAR-TAF

Flughäfen :

Militärflugplatz Kleine Brogel

Peer, Belgien

Breite: 51-10N, Länge: 005-28E, Höhe: 55 m

Beobachtung

Neuester Wetterbericht von vor 10 Minuten, um 06:11 UTC
Wind 4 kt aus Ost
Temperatur -4°C
Luftfeuchtigkeit 93%
Luftdruck 997 hPa
Sichtweite: 8000 m
Leicht bewölkt in der Höhe von 3000 ft
Aufgelockert bewölkt in der Höhe von 20000 ft

METAR: EBBL 230611Z 08004KT 8000 FEW030 SCT200 M04/M05 Q0997 BLU BLU TEMPO WHT

Zeit: 07:21 (06:21 UTC)

Prognose

Neuester Wetterbericht von vor 14 Stunden und 40 Minuten, um 15:41 UTC
Gültige Prognose vom 22 um 19 UTC bis 23 um 07 UTC
Wind 10 kt aus Süd/Südwest
Sichtweite: 5000 m
Durchbrochene Bewölkung in der Höhe von 2000 ft
feuchter Dunst

TAF: EBBL 221541Z 2219/2307 20010KT 5000 BR BKN020

Wetterbeobachtungen und Prognosen von mehr als 4000 Flughäfen (METAR und TAF Bericht).

Die verfügbaren Stationen werden durch gelbe und rote Markierungen auf der Karte dargestellt.

Führen Sie die Maus auf sie, um den Namen der Station zu sehen.

Darauf klicken, um die Beobachtung von Wetterbeobachtungen und Prognosen zu sehen.

Um die Karte zu ändern : klicken Sie auf den grünen Tasten mit einem schwarzen Kreuz Zum Vergrößern, auf den grünen Button mit einem Gedankenstrich zu verkleinern, oder auf die grünen Pfeile für benachbarte Karten.


METAR-TAF: